Bookmark and Share
Track history (hours):
 

Zim Qingdao

Last reported at 2014-Apr-17 03:28 UTC. Time now 2014-Apr-17 09:41 UTC.
Position N 41°02' E 001°26'.

Length 260.61 m; beam 32.25 m; draft 12.6 m.

Type: Cargo ship. MMSI: 636012904.

NotesDate/timePositionNaut miles runAvg speedWind from/ knotsBaromVisibWave heightAir tempDewpointWater temp
2014-Apr-17 03:28N 41°02' E 001°26'2512.9
2014-Apr-17 01:33N 41°09' E 001°58'1313.4
2014-Apr-17 00:33N 41°12' E 002°15'712.2
2014-Apr-17 00:00N 41°12' E 002°24'614.7 050 / 131021.010.8 14.011.0
2014-Apr-16 23:33N 41°16' E 002°31'1312.3
2014-Apr-16 22:31N 41°22' E 002°46'1213.0
2014-Apr-16 21:33N 41°28' E 003°00'1413.1
2014-Apr-16 20:31N 41°34' E 003°17'1313.4
2014-Apr-16 19:33N 41°40' E 003°32'1913.4
2014-Apr-16 18:07N 41°49' E 003°55'749.9
2014-Apr-16 18:00N 41°54' E 004°00'4 8.2 100 / 151018.010.8 17.014.0
2014-Apr-16 17:33N 41°53' E 004°04'1413.7
2014-Apr-16 16:33N 41°59' E 004°21'1313.5
2014-Apr-16 15:34N 42°05' E 004°37'1413.5
2014-Apr-16 14:33N 42°11' E 004°53'1513.4
2014-Apr-16 13:25N 42°18' E 005°11'2517.8
2014-Apr-16 12:00N 42°30' E 005°42'4 5.4 090 / 221018.010.8 1.516.011.015.0
2014-Apr-16 11:13N 42°32' E 005°47'913.4
2014-Apr-16 10:33N 42°36' E 005°57'1313.4
2014-Apr-16 09:33N 42°41' E 006°14'1413.7
2014-Apr-16 08:33N 42°45' E 006°32'1414.5
2014-Apr-16 07:33N 42°53' E 006°48'1716.8
2014-Apr-16 06:34N 43°05' E 007°05'1627.7
2014-Apr-16 06:00N 43°12' E 007°24'6 8.9 060 / 101016.010.8 16.011.0
2014-Apr-16 05:21N 43°16' E 007°29'1517.5
2014-Apr-16 04:29N 43°25' E 007°46'3717.9
2014-Apr-16 02:25N 43°52' E 008°21'1517.8
2014-Apr-16 01:33N 44°03' E 008°36'1817.3
2014-Apr-16 00:33N 44°16' E 008°52'8 8.4
2014-Apr-15 23:34N 44°24' E 008°54'0 0.1
2014-Apr-15 22:31N 44°24' E 008°54'0 0.0
2014-Apr-15 21:31N 44°24' E 008°54'0 0.0
2014-Apr-15 20:31N 44°24' E 008°54'0 0.0
2014-Apr-15 19:31N 44°24' E 008°54'0 0.0
2014-Apr-15 18:31N 44°24' E 008°54'0 0.0
2014-Apr-15 17:31N 44°24' E 008°54'0 0.0
2014-Apr-15 16:31N 44°24' E 008°54'0 0.0
2014-Apr-15 15:31N 44°24' E 008°54'0 0.0
2014-Apr-15 14:31N 44°24' E 008°54'0 0.0
2014-Apr-15 12:31N 44°24' E 008°54'0 0.0
2014-Apr-15 10:31N 44°24' E 008°54'0 0.0
2014-Apr-15 09:34N 44°24' E 008°54'0 0.0
2014-Apr-15 08:34N 44°24' E 008°54'0 0.1
2014-Apr-15 07:34N 44°24' E 008°54'4 3.9
2014-Apr-15 06:34N 44°22' E 008°58'2951.6
2014-Apr-15 06:00N 43°54' E 009°12'1534.8 220 / 21010.010.8 16.013.0
2014-Apr-15 05:34N 44°08' E 009°05'3316.7
2014-Apr-15 03:34N 43°36' E 009°20'1716.5
2014-Apr-15 02:34N 43°21' E 009°27'1716.7
2014-Apr-15 01:34N 43°05' E 009°34'10063.8
2014-Apr-15 00:00N 41°30' E 010°18'72166.8 040 / 181010.010.8 16.014.0
2014-Apr-14 23:34N 42°41' E 010°06'1816.8
2014-Apr-14 22:31N 42°29' E 010°23'9821.7
2014-Apr-14 18:00N 41°18' E 011°54'5211.7 200 / 91014.010.8 16.013.0
2014-Apr-14 13:32N 40°41' E 012°42'5032.6
2014-Apr-14 12:00N 40°06' E 013°30'18415.3 170 / 31017.010.8 18.0 9.0
2014-Apr-14 00:00N 37°48' E 016°06'10918.1 020 / 81015.010.8 15.012.0
2014-Apr-13 18:00N 37°18' E 018°18'10517.5 080 / 41013.010.8 15.012.015.0
2014-Apr-13 12:00N 36°48' E 020°24'16412.8 130 / 101015.010.8 0.518.011.015.0
2014-Apr-12 23:06N 37°34' E 023°42'917.2
2014-Apr-12 22:33N 37°43' E 023°40'1413.9
2014-Apr-12 21:32N 37°57' E 023°35'0 0.3
2014-Apr-12 20:33N 37°57' E 023°35'0 0.0
2014-Apr-12 19:22N 37°57' E 023°35'0 0.0
2014-Apr-12 18:28N 37°57' E 023°35'0 0.0
2014-Apr-12 16:28N 37°57' E 023°35'0 0.0
2014-Apr-12 15:22N 37°57' E 023°35'0 0.0
2014-Apr-12 14:28N 37°57' E 023°35'0 0.0
2014-Apr-12 13:28N 37°57' E 023°35'0 0.0
2014-Apr-12 12:33N 37°57' E 023°35'0 0.0
2014-Apr-12 11:32N 37°57' E 023°35'0 0.0
2014-Apr-12 10:33N 37°57' E 023°35'0 0.0
2014-Apr-12 09:34N 37°57' E 023°35'0 0.0
2014-Apr-12 08:33N 37°57' E 023°35'0 0.0
2014-Apr-12 07:33N 37°57' E 023°35'0 0.0
2014-Apr-12 06:32N 37°57' E 023°35'0 0.0
2014-Apr-12 05:31N 37°57' E 023°35'0 0.2
2014-Apr-12 04:33N 37°57' E 023°35'3 3.5
2014-Apr-12 03:33N 37°54' E 023°38'5 5.0
2014-Apr-12 02:34N 37°50' E 023°41'1211.5
2014-Apr-12 01:33N 37°39' E 023°46'4915.1
2014-Apr-11 22:17N 36°53' E 024°07'1115.3
2014-Apr-11 21:34N 36°42' E 024°11'1514.6
2014-Apr-11 20:33N 36°32' E 024°23'1514.7
2014-Apr-11 19:33N 36°23' E 024°39'1515.0
2014-Apr-11 18:34N 36°15' E 024°54'1730.2
2014-Apr-11 18:00N 36°06' E 025°12'2 4.8 210 / 101016.010.8 16.0 9.0
2014-Apr-11 17:34N 36°07' E 025°10'1515.3
2014-Apr-11 16:34N 35°59' E 025°26'1515.2
2014-Apr-11 15:33N 35°51' E 025°42'1615.3
2014-Apr-11 14:30N 35°42' E 025°58'4317.1
2014-Apr-11 12:00N 35°18' E 026°42'26514.7 180 / 61016.010.8 0.518.0 9.020.0
2014-Apr-10 18:00N 33°42' E 031°42'   180 / 81016.010.8 18.013.0
2014-Apr-07 06:14N 32°54' E 034°49'812.5
2014-Apr-07 05:33N 32°56' E 034°39'1312.4
2014-Apr-07 04:33N 32°58' E 034°24'1212.3
2014-Apr-07 03:33N 33°00' E 034°10'  

Dump ship's entire track history

sailing weather and tide predictions

Zim Qingdao — A8IZ2 — position and weather